Terminal Aerodrome Forecast
Issued by NWS

Home | Current Version | Previous Version | Text Only | Print | Product List | Glossary On
Versions: 1 2 3 4 5 6 7 8 9 10 11 12 13 14 15 16 17 18 19 20 21 22 23 24 25 26 27 28 29 30 31 32 33
000
FTPA31 PHFO 231100
TAFOGG
TAF
PHOG 231138Z 2312/2412 03008KT P6SM SCT025 SCT050
     FM231700 05015KT P6SM SCT025 SCT050
     FM232100 04018G28KT P6SM FEW025 SCT050
     FM240400 04010KT P6SM FEW025 SCT050
      AMD LTD TO WX VIS AND WIND TIL 231600=

USA.gov is the U.S. government's official web portal to all federal, state and local government web resources and services.